Time;durP1;ratioP1;P1;durP2;ratioP2;P2;SDS_P1;SDS_P2;PMS_P1;PMS_P2;Temp;Humidity;BMP_temperature;BMP_pressure;BME280_temperature;BME280_humidity;BME280_pressure;Samples;Min_cycle;Max_cycle;Signal;HPM_P1;HPM_P2
2020/12/12 00:01:49;;;;;;;4.93;4.50;;;4.50;99.90;;;;;;5073744;28;20171;-58
2020/12/12 00:04:15;;;;;;;4.37;4.07;;;4.50;99.90;;;;;;5073594;28;20562;-61
2020/12/12 00:06:41;;;;;;;4.33;4.07;;;4.60;99.90;;;;;;5073326;28;20401;-60
2020/12/12 00:09:06;;;;;;;4.60;4.40;;;4.60;99.90;;;;;;5073605;28;20453;-59
2020/12/12 00:11:32;;;;;;;4.53;4.33;;;4.60;99.90;;;;;;5073374;28;20167;-58
2020/12/12 00:13:57;;;;;;;4.73;4.53;;;4.70;99.90;;;;;;5073372;28;20679;-60
2020/12/12 00:16:23;;;;;;;4.80;4.50;;;4.70;99.90;;;;;;5073309;28;20566;-59
2020/12/12 00:18:48;;;;;;;4.70;4.40;;;4.70;99.90;;;;;;5073144;28;20178;-57
2020/12/12 00:21:18;;;;;;;3.70;3.50;;;4.90;99.90;;;;;;5073292;28;20697;-55
2020/12/12 00:23:47;;;;;;;3.73;3.53;;;4.80;99.90;;;;;;5073237;28;20257;-56
2020/12/12 00:26:17;;;;;;;4.17;3.97;;;4.80;99.90;;;;;;5073032;28;20471;-57
2020/12/12 00:28:43;;;;;;;3.97;3.77;;;4.80;99.90;;;;;;5072950;28;20194;-59
2020/12/12 00:31:08;;;;;;;4.10;3.97;;;4.70;99.90;;;;;;5072951;28;20401;-58
2020/12/12 00:33:34;;;;;;;5.10;4.80;;;4.80;99.90;;;;;;5072969;28;20191;-59
2020/12/12 00:35:59;;;;;;;5.20;5.00;;;4.80;99.90;;;;;;5071307;28;20175;-58
2020/12/12 00:38:25;;;;;;;5.33;5.03;;;4.80;99.90;;;;;;5072572;28;20167;-60
2020/12/12 00:40:58;;;;;;;5.23;5.00;;;4.80;99.90;;;;;;5072869;28;20174;-56
2020/12/12 00:43:24;;;;;;;5.00;4.80;;;4.70;99.90;;;;;;5072678;28;20559;-58
2020/12/12 00:45:50;;;;;;;6.30;5.97;;;4.80;99.90;;;;;;5071637;28;20413;-58
2020/12/12 00:48:16;;;;;;;5.90;5.60;;;4.80;99.90;;;;;;5072179;28;20447;-56
2020/12/12 00:50:45;;;;;;;5.10;4.83;;;4.70;99.90;;;;;;5072795;28;20405;-57
2020/12/12 00:53:11;;;;;;;5.50;4.73;;;4.70;99.90;;;;;;5072454;28;20839;-59
2020/12/12 00:55:37;;;;;;;4.40;4.20;;;4.80;99.90;;;;;;5072616;28;20402;-60
2020/12/12 00:58:02;;;;;;;5.50;5.20;;;4.80;99.90;;;;;;5072169;28;20408;-60
2020/12/12 01:00:32;;;;;;;4.73;4.50;;;4.80;99.90;;;;;;5071238;28;20171;-55
2020/12/12 01:03:02;;;;;;;5.33;5.03;;;4.80;99.90;;;;;;5072598;28;20194;-55
2020/12/12 01:05:28;;;;;;;5.57;5.17;;;4.70;99.90;;;;;;5072183;28;20407;-56
2020/12/12 01:07:54;;;;;;;4.60;4.40;;;4.70;99.90;;;;;;5072164;28;20420;-55
2020/12/12 01:10:20;;;;;;;4.90;4.60;;;4.70;99.90;;;;;;5072246;28;20410;-59
2020/12/12 01:12:46;;;;;;;4.43;4.20;;;4.70;99.90;;;;;;5072502;28;20252;-58
2020/12/12 01:15:12;;;;;;;4.93;4.53;;;4.70;99.90;;;;;;5071879;28;20881;-59
2020/12/12 01:17:38;;;;;;;5.27;5.03;;;4.70;99.90;;;;;;5072013;28;20408;-61
2020/12/12 01:20:04;;;;;;;5.70;5.30;;;4.80;99.90;;;;;;5072121;28;20171;-61
2020/12/12 01:22:30;;;;;;;5.43;5.13;;;4.80;99.90;;;;;;5072095;28;20238;-58
2020/12/12 01:24:56;;;;;;;5.30;4.90;;;4.90;99.90;;;;;;5071924;28;20401;-60
2020/12/12 01:27:21;;;;;;;6.27;5.87;;;4.80;99.90;;;;;;5071945;28;20242;-60
2020/12/12 01:29:47;;;;;;;6.03;5.63;;;4.90;99.90;;;;;;5071863;28;20260;-56
2020/12/12 01:32:14;;;;;;;5.70;5.43;;;4.90;99.90;;;;;;5072129;28;20667;-56
2020/12/12 01:34:40;;;;;;;5.90;5.50;;;4.90;99.90;;;;;;5071822;28;20183;-61
2020/12/12 01:37:05;;;;;;;5.40;5.00;;;4.90;99.90;;;;;;5071615;28;20406;-59
2020/12/12 01:39:31;;;;;;;5.50;5.13;;;4.90;99.90;;;;;;5072051;28;21102;-57
2020/12/12 01:41:56;;;;;;;5.60;5.20;;;4.90;99.90;;;;;;5071804;28;20225;-55
2020/12/12 01:44:22;;;;;;;5.40;5.10;;;4.90;99.90;;;;;;5071807;28;20195;-57
2020/12/12 01:46:49;;;;;;;4.60;4.40;;;5.00;99.90;;;;;;5071502;28;20171;-58
2020/12/12 01:49:15;;;;;;;5.10;4.80;;;5.00;99.90;;;;;;5071804;28;20227;-58
2020/12/12 01:51:42;;;;;;;6.50;6.07;;;5.10;99.90;;;;;;5071706;28;20454;-57
2020/12/12 01:54:08;;;;;;;6.07;5.67;;;5.10;99.90;;;;;;5071756;28;20452;-61
2020/12/12 01:56:34;;;;;;;6.03;5.63;;;5.00;99.90;;;;;;5071146;28;20401;-60
2020/12/12 01:58:59;;;;;;;5.70;5.30;;;5.00;99.90;;;;;;5071623;28;20532;-58
2020/12/12 02:01:27;;;;;;;5.47;5.10;;;5.00;99.90;;;;;;5071615;28;20413;-58
2020/12/12 02:03:55;;;;;;;6.23;5.80;;;5.00;99.90;;;;;;5071970;28;20699;-56
2020/12/12 02:06:21;;;;;;;6.83;6.33;;;5.00;99.90;;;;;;5071639;28;20459;-60
2020/12/12 02:08:51;;;;;;;5.27;4.97;;;4.90;99.90;;;;;;5071206;28;20450;-59
2020/12/12 02:11:17;;;;;;;6.20;5.80;;;4.90;99.90;;;;;;5071760;28;20178;-61
2020/12/12 02:13:46;;;;;;;5.47;5.07;;;5.00;99.90;;;;;;5071273;28;20429;-59
2020/12/12 02:16:16;;;;;;;6.13;5.80;;;5.00;99.90;;;;;;5071692;28;20401;-59
2020/12/12 02:18:41;;;;;;;6.10;5.80;;;5.00;99.90;;;;;;5071140;28;20814;-61
2020/12/12 02:21:08;;;;;;;6.20;5.80;;;5.00;99.90;;;;;;5071583;28;20398;-57
2020/12/12 02:23:34;;;;;;;4.70;4.50;;;5.00;99.90;;;;;;5071295;28;20248;-56
2020/12/12 02:26:00;;;;;;;5.10;4.70;;;5.00;99.90;;;;;;5071576;28;20432;-60
2020/12/12 02:28:32;;;;;;;5.20;4.90;;;5.00;99.90;;;;;;5070988;28;20449;-53
2020/12/12 02:30:57;;;;;;;4.80;4.60;;;5.10;99.90;;;;;;5071549;28;20963;-60
2020/12/12 02:33:23;;;;;;;4.73;4.53;;;5.10;99.90;;;;;;5071223;28;20421;-56
2020/12/12 02:35:49;;;;;;;4.73;4.53;;;5.10;99.90;;;;;;5071406;28;20225;-59
2020/12/12 02:38:14;;;;;;;5.33;5.10;;;5.10;99.90;;;;;;5071083;28;20198;-61
2020/12/12 02:40:40;;;;;;;5.33;5.07;;;5.10;99.90;;;;;;5071347;28;20217;-57
2020/12/12 02:43:10;;;;;;;4.13;4.03;;;5.10;99.90;;;;;;5071276;28;20599;-60
2020/12/12 02:45:36;;;;;;;4.27;4.07;;;5.10;99.90;;;;;;5071096;28;20397;-60
2020/12/12 02:48:02;;;;;;;4.97;4.77;;;5.10;99.90;;;;;;5070973;28;20897;-61
2020/12/12 02:50:28;;;;;;;4.70;4.50;;;5.30;99.90;;;;;;5071203;28;20254;-60
2020/12/12 02:52:54;;;;;;;4.10;4.00;;;5.30;99.90;;;;;;5071220;28;20184;-56
2020/12/12 02:55:21;;;;;;;3.43;3.33;;;5.30;99.90;;;;;;5071048;28;20398;-61
2020/12/12 02:57:46;;;;;;;3.50;3.40;;;5.30;99.90;;;;;;5069529;28;20473;-59
2020/12/12 03:00:14;;;;;;;4.13;4.03;;;5.30;99.90;;;;;;5071111;28;20498;-58
2020/12/12 03:02:40;;;;;;;4.27;4.17;;;5.30;99.90;;;;;;5071075;28;20444;-61
2020/12/12 03:05:07;;;;;;;4.73;4.53;;;5.20;99.90;;;;;;5070911;28;20406;-59
2020/12/12 03:07:33;;;;;;;4.00;3.90;;;5.30;99.90;;;;;;5070923;28;20409;-61
2020/12/12 03:10:00;;;;;;;4.00;3.90;;;5.30;99.90;;;;;;5073786;28;20456;-57
2020/12/12 03:12:26;;;;;;;3.40;3.30;;;5.30;99.90;;;;;;5074498;28;20917;-59
2020/12/12 03:14:51;;;;;;;3.70;3.60;;;5.20;99.90;;;;;;5074506;28;20451;-60
2020/12/12 03:17:17;;;;;;;3.77;3.67;;;5.30;99.90;;;;;;5074145;28;20171;-58
2020/12/12 03:19:42;;;;;;;3.63;3.53;;;5.30;99.90;;;;;;5074609;28;20224;-59
2020/12/12 03:22:08;;;;;;;3.70;3.60;;;5.30;99.90;;;;;;5074376;28;20246;-59
2020/12/12 03:24:34;;;;;;;3.33;3.23;;;5.30;99.90;;;;;;5074406;28;20191;-59
2020/12/12 03:27:00;;;;;;;3.50;3.40;;;5.30;99.90;;;;;;5074030;28;20246;-55
2020/12/12 03:29:26;;;;;;;3.77;3.67;;;5.30;99.90;;;;;;5074322;28;20451;-58
2020/12/12 03:31:52;;;;;;;3.60;3.50;;;5.30;99.90;;;;;;5074224;28;20398;-58
2020/12/12 03:34:18;;;;;;;3.33;3.23;;;5.40;99.90;;;;;;5074206;28;20850;-54
2020/12/12 03:36:43;;;;;;;3.90;3.80;;;5.40;99.90;;;;;;5073902;28;20167;-61
2020/12/12 03:39:09;;;;;;;4.33;4.23;;;5.40;99.90;;;;;;5074158;28;20431;-61
2020/12/12 03:41:35;;;;;;;3.43;3.33;;;5.40;99.90;;;;;;5074123;28;20196;-59
2020/12/12 03:44:00;;;;;;;4.17;3.97;;;5.40;99.90;;;;;;5073887;28;20191;-59
2020/12/12 03:46:26;;;;;;;3.80;3.70;;;5.40;99.90;;;;;;5074050;28;20177;-60
2020/12/12 03:48:53;;;;;;;3.80;3.60;;;5.40;99.90;;;;;;5073640;28;20191;-60
2020/12/12 03:51:18;;;;;;;3.63;3.53;;;5.40;99.90;;;;;;5074045;28;20394;-58
2020/12/12 03:53:44;;;;;;;3.20;3.10;;;5.40;99.90;;;;;;5073750;28;20428;-59
2020/12/12 03:56:09;;;;;;;2.80;2.80;;;5.40;99.90;;;;;;5074446;28;20163;-62
2020/12/12 03:58:35;;;;;;;2.90;2.80;;;5.40;99.90;;;;;;5073416;28;20187;-61
2020/12/12 04:01:01;;;;;;;3.23;3.13;;;5.40;99.90;;;;;;5073097;28;20234;-61
2020/12/12 04:03:27;;;;;;;3.07;3.00;;;5.40;99.90;;;;;;5072598;28;20456;-61
2020/12/12 04:05:52;;;;;;;3.10;3.00;;;5.40;99.90;;;;;;5073825;28;20643;-62
2020/12/12 04:08:18;;;;;;;3.47;3.37;;;5.40;99.90;;;;;;5073473;28;20244;-61
2020/12/12 04:10:44;;;;;;;3.13;3.03;;;5.40;99.90;;;;;;5073519;28;20167;-61
2020/12/12 04:13:10;;;;;;;3.67;3.57;;;5.40;99.90;;;;;;5073648;28;20195;-62
2020/12/12 04:15:35;;;;;;;3.40;3.30;;;5.40;99.90;;;;;;5073329;28;20509;-62
2020/12/12 04:18:01;;;;;;;3.57;3.47;;;5.40;99.90;;;;;;5073367;28;20174;-61
2020/12/12 04:20:27;;;;;;;3.40;3.30;;;5.40;99.90;;;;;;5073192;28;20210;-61
2020/12/12 04:22:53;;;;;;;3.50;3.40;;;5.40;99.90;;;;;;5073488;28;20433;-61
2020/12/12 04:25:18;;;;;;;3.20;3.10;;;5.40;99.90;;;;;;5073184;28;20177;-61
2020/12/12 04:27:44;;;;;;;3.07;2.97;;;5.40;99.90;;;;;;5073084;28;20171;-61
2020/12/12 04:30:09;;;;;;;4.73;4.53;;;5.40;99.90;;;;;;5073015;28;20576;-61
2020/12/12 04:32:35;;;;;;;3.30;3.20;;;5.40;99.90;;;;;;5073231;28;20181;-62
2020/12/12 04:35:01;;;;;;;5.27;5.03;;;5.40;99.90;;;;;;5073166;28;20167;-62
2020/12/12 04:37:26;;;;;;;8.50;7.80;;;5.50;99.90;;;;;;5072825;28;20171;-62
2020/12/12 04:39:52;;;;;;;4.57;4.27;;;5.50;99.90;;;;;;5073234;28;20176;-61
2020/12/12 04:42:20;;;;;;;10.10;9.30;;;5.50;99.90;;;;;;5072902;28;20250;-61
2020/12/12 04:44:46;;;;;;;7.53;7.03;;;5.50;99.90;;;;;;5072948;28;20242;-62
2020/12/12 04:47:12;;;;;;;6.90;6.40;;;5.50;99.90;;;;;;5072583;28;20437;-62
2020/12/12 04:49:39;;;;;;;5.77;5.30;;;5.50;99.90;;;;;;5073067;28;20828;-61
2020/12/12 04:52:05;;;;;;;15.23;13.70;;;5.50;99.90;;;;;;5072783;28;20424;-62
2020/12/12 04:54:33;;;;;;;13.70;12.30;;;5.50;99.90;;;;;;5072683;28;20512;-61
2020/12/12 04:57:03;;;;;;;7.77;7.17;;;5.50;99.90;;;;;;5072349;28;20405;-62
2020/12/12 04:59:31;;;;;;;9.20;8.37;;;5.50;99.90;;;;;;5072677;28;20433;-62
2020/12/12 05:01:58;;;;;;;6.90;6.30;;;5.60;99.90;;;;;;5072684;28;20437;-62
2020/12/12 05:04:24;;;;;;;5.07;4.77;;;5.50;99.90;;;;;;5072679;28;20425;-61
2020/12/12 05:06:50;;;;;;;3.50;3.37;;;5.60;99.90;;;;;;5072434;28;20944;-62
2020/12/12 05:09:15;;;;;;;3.43;3.33;;;5.60;99.90;;;;;;5072379;28;20195;-61
2020/12/12 05:11:44;;;;;;;3.70;3.40;;;5.50;99.90;;;;;;5072597;28;20167;-62
2020/12/12 05:14:10;;;;;;;3.67;3.47;;;5.60;99.90;;;;;;5072295;28;20191;-62
2020/12/12 05:16:36;;;;;;;3.70;3.60;;;5.60;99.90;;;;;;5072309;28;20405;-61
2020/12/12 05:19:04;;;;;;;3.73;3.60;;;5.50;99.90;;;;;;5072383;28;20707;-61
2020/12/12 05:21:30;;;;;;;4.17;3.87;;;5.60;99.90;;;;;;5072422;28;20455;-62
2020/12/12 05:23:57;;;;;;;4.00;3.80;;;5.60;99.90;;;;;;5071988;28;20781;-61
2020/12/12 05:26:24;;;;;;;3.27;3.17;;;5.60;99.90;;;;;;5072331;28;20825;-61
2020/12/12 05:28:50;;;;;;;3.47;3.37;;;5.60;99.90;;;;;;5072015;28;20507;-61
2020/12/12 05:31:17;;;;;;;4.40;4.20;;;5.60;99.90;;;;;;5071750;28;20460;-61
2020/12/12 05:33:43;;;;;;;3.97;3.77;;;5.60;99.90;;;;;;5072020;28;20429;-62
2020/12/12 05:36:11;;;;;;;3.67;3.47;;;5.60;99.90;;;;;;5072292;28;20405;-62
2020/12/12 05:38:36;;;;;;;4.23;4.03;;;5.50;99.90;;;;;;5071771;28;20172;-61
2020/12/12 05:41:02;;;;;;;4.73;4.33;;;5.60;99.90;;;;;;5072147;28;20478;-62
2020/12/12 05:43:32;;;;;;;3.03;2.93;;;5.60;99.90;;;;;;5072224;28;20187;-61
2020/12/12 05:45:59;;;;;;;4.13;3.93;;;5.50;99.90;;;;;;5071941;28;20172;-62
2020/12/12 05:48:25;;;;;;;4.13;3.90;;;5.50;99.90;;;;;;5071761;28;20453;-61
2020/12/12 05:50:51;;;;;;;4.20;4.00;;;5.60;99.90;;;;;;5072138;28;20966;-62
2020/12/12 05:53:17;;;;;;;4.00;3.80;;;5.60;99.90;;;;;;5071816;28;20705;-61
2020/12/12 05:55:45;;;;;;;3.10;2.90;;;5.60;99.90;;;;;;5071840;28;20546;-61
2020/12/12 05:58:14;;;;;;;2.80;2.70;;;5.60;99.90;;;;;;5071651;28;20190;-61
2020/12/12 06:00:40;;;;;;;3.40;3.20;;;5.60;99.90;;;;;;5071814;28;20488;-61
2020/12/12 06:03:20;;;;;;;2.87;2.77;;;5.60;99.90;;;;;;5072084;28;20464;-61
2020/12/12 06:05:48;;;;;;;3.03;2.93;;;5.60;99.90;;;;;;5071644;28;20444;-61
2020/12/12 06:08:29;;;;;;;2.90;2.80;;;5.60;99.90;;;;;;5071592;28;20417;-61
2020/12/12 06:10:58;;;;;;;2.80;2.70;;;5.60;99.90;;;;;;5071846;28;20401;-61
2020/12/12 06:13:26;;;;;;;3.60;3.40;;;5.60;99.90;;;;;;5071881;28;20442;-61
2020/12/12 06:15:56;;;;;;;3.77;3.57;;;5.60;99.90;;;;;;5071654;28;20400;-61
2020/12/12 06:18:30;;;;;;;3.83;3.63;;;5.60;99.90;;;;;;5071678;28;20404;-62
2020/12/12 06:21:02;;;;;;;3.37;3.23;;;5.70;99.90;;;;;;5071946;28;20405;-63
2020/12/12 06:23:30;;;;;;;3.17;2.97;;;5.70;99.90;;;;;;5071629;28;20430;-61
2020/12/12 06:25:55;;;;;;;3.37;3.27;;;5.60;99.90;;;;;;5071773;28;20432;-62
2020/12/12 06:28:24;;;;;;;3.00;2.80;;;5.60;99.90;;;;;;5071156;28;20402;-62
2020/12/12 06:30:50;;;;;;;3.30;3.07;;;5.70;99.90;;;;;;5071581;28;20175;-61
2020/12/12 06:33:16;;;;;;;2.70;2.60;;;5.70;99.90;;;;;;5071500;28;20433;-61
2020/12/12 06:35:42;;;;;;;3.20;3.10;;;5.60;99.90;;;;;;5071400;28;20885;-61
2020/12/12 06:38:16;;;;;;;2.47;2.37;;;5.60;99.90;;;;;;5071053;28;20409;-61
2020/12/12 06:40:42;;;;;;;3.53;3.37;;;5.60;99.90;;;;;;5071454;28;20417;-61
2020/12/12 06:43:26;;;;;;;4.80;4.50;;;5.60;99.90;;;;;;5072967;28;20465;-61
2020/12/12 06:45:52;;;;;;;5.13;4.83;;;5.70;99.90;;;;;;5075310;28;20171;-61
2020/12/12 06:48:29;;;;;;;6.60;6.10;;;5.70;99.90;;;;;;5074719;28;20405;-61
2020/12/12 06:50:55;;;;;;;5.20;4.80;;;5.70;99.90;;;;;;5075206;28;20172;-61
2020/12/12 06:53:23;;;;;;;4.47;4.17;;;5.70;99.90;;;;;;5074858;28;20425;-61
2020/12/12 06:56:08;;;;;;;4.73;4.33;;;5.80;99.90;;;;;;5074976;28;20397;-61
2020/12/12 06:58:34;;;;;;;4.20;3.90;;;5.80;99.90;;;;;;5074473;28;20951;-61
2020/12/12 07:01:30;;;;;;;3.00;2.90;;;5.80;99.90;;;;;;5075063;28;20880;-62
2020/12/12 07:04:01;;;;;;;3.60;3.40;;;5.80;99.90;;;;;;5074592;28;20524;-61
2020/12/12 07:06:31;;;;;;;3.40;3.10;;;5.70;99.90;;;;;;5074846;28;20386;-61
2020/12/12 07:09:08;;;;;;;3.30;3.20;;;5.80;99.90;;;;;;5074687;28;20441;-61
2020/12/12 07:11:35;;;;;;;3.70;3.40;;;5.80;99.90;;;;;;5074853;28;20398;-61
2020/12/12 07:14:02;;;;;;;2.73;2.63;;;5.80;99.90;;;;;;5074597;28;20428;-62
2020/12/12 07:16:29;;;;;;;5.63;5.17;;;5.80;99.90;;;;;;5074520;28;20394;-61
2020/12/12 07:18:54;;;;;;;2.27;2.13;;;5.80;99.90;;;;;;5074591;28;20417;-62
2020/12/12 07:21:20;;;;;;;3.00;2.90;;;5.80;99.90;;;;;;5074382;28;20413;-61
2020/12/12 07:23:47;;;;;;;3.13;2.93;;;5.70;99.90;;;;;;5073272;28;20437;-62
2020/12/12 07:26:13;;;;;;;4.40;3.83;;;5.70;99.90;;;;;;5074515;28;20781;-61
2020/12/12 07:28:39;;;;;;;2.67;2.50;;;5.70;99.90;;;;;;5074169;28;20445;-62
2020/12/12 07:31:05;;;;;;;2.20;2.10;;;5.70;99.90;;;;;;5074284;28;20402;-61
2020/12/12 07:33:31;;;;;;;3.23;3.03;;;5.70;99.90;;;;;;5074371;28;20824;-61
2020/12/12 07:35:57;;;;;;;2.77;2.57;;;5.60;99.90;;;;;;5074187;28;20921;-62
2020/12/12 07:38:24;;;;;;;2.53;2.43;;;5.70;99.90;;;;;;5074103;28;20414;-62
2020/12/12 07:40:50;;;;;;;2.13;2.03;;;5.70;99.90;;;;;;5074206;28;20420;-61
2020/12/12 07:43:15;;;;;;;3.80;3.60;;;5.70;99.90;;;;;;5074213;28;20430;-61
2020/12/12 07:46:04;;;;;;;5.70;5.27;;;5.70;99.90;;;;;;5074109;28;20409;-61
2020/12/12 07:48:29;;;;;;;3.97;3.77;;;5.70;99.90;;;;;;5073925;28;20675;-62
2020/12/12 07:50:55;;;;;;;2.83;2.63;;;5.70;99.90;;;;;;5074137;28;20456;-61
2020/12/12 07:53:21;;;;;;;2.63;2.53;;;5.70;99.90;;;;;;5073857;28;20229;-62
2020/12/12 07:55:58;;;;;;;3.20;3.00;;;5.70;99.90;;;;;;5073487;28;20654;-61
2020/12/12 07:58:27;;;;;;;3.03;2.77;;;5.70;99.90;;;;;;5073432;28;20183;-61
2020/12/12 08:01:00;;;;;;;3.80;3.50;;;5.70;99.90;;;;;;5074043;28;20406;-61
2020/12/12 08:03:26;;;;;;;2.83;2.67;;;5.70;99.90;;;;;;5073651;28;20786;-61
2020/12/12 08:06:09;;;;;;;3.03;2.93;;;5.70;99.90;;;;;;5073819;28;20446;-62
2020/12/12 08:08:36;;;;;;;2.37;2.27;;;5.80;99.90;;;;;;5073215;28;20512;-61
2020/12/12 08:11:03;;;;;;;2.50;2.40;;;5.80;99.90;;;;;;5073810;28;20397;-62
2020/12/12 08:13:29;;;;;;;5.00;3.10;;;5.80;99.90;;;;;;5073536;28;20425;-61
2020/12/12 08:15:59;;;;;;;5.07;2.70;;;5.80;99.90;;;;;;5073711;28;20423;-61
2020/12/12 08:18:25;;;;;;;2.70;2.50;;;5.90;99.90;;;;;;5073102;28;20412;-62
2020/12/12 08:20:50;;;;;;;3.47;3.20;;;5.90;99.90;;;;;;5073607;28;20770;-61
2020/12/12 08:23:17;;;;;;;3.13;2.93;;;6.00;99.90;;;;;;5073158;28;20215;-61
2020/12/12 08:25:43;;;;;;;3.10;2.97;;;6.00;99.90;;;;;;5073377;28;20168;-62
2020/12/12 08:28:10;;;;;;;3.03;2.90;;;6.10;99.90;;;;;;5073123;28;20410;-62
2020/12/12 08:30:35;;;;;;;2.80;2.57;;;6.10;99.90;;;;;;5073404;28;20457;-62
2020/12/12 08:33:11;;;;;;;2.93;2.60;;;6.20;99.90;;;;;;5073308;28;20443;-61
2020/12/12 08:35:36;;;;;;;3.27;2.70;;;6.10;99.90;;;;;;5072892;28;20658;-62
2020/12/12 08:38:06;;;;;;;3.50;3.30;;;6.20;99.90;;;;;;5072935;28;20398;-61
2020/12/12 08:40:44;;;;;;;3.00;2.80;;;6.20;99.90;;;;;;5073003;28;20175;-61
2020/12/12 08:43:11;;;;;;;4.90;3.73;;;6.20;99.90;;;;;;5071863;28;20431;-61
2020/12/12 08:45:38;;;;;;;3.57;3.33;;;6.20;99.90;;;;;;5072851;28;20430;-62
2020/12/12 08:48:07;;;;;;;4.80;2.90;;;6.20;99.90;;;;;;5072727;28;20402;-62
2020/12/12 08:50:57;;;;;;;3.70;3.50;;;6.30;99.90;;;;;;5072538;28;20456;-61
2020/12/12 08:53:27;;;;;;;3.27;2.93;;;6.30;99.90;;;;;;5072350;28;20505;-61
2020/12/12 08:56:18;;;;;;;3.37;3.07;;;6.40;99.90;;;;;;5072686;28;20429;-62
2020/12/12 08:58:54;;;;;;;3.80;3.60;;;6.40;99.90;;;;;;5072371;28;20451;-62
2020/12/12 09:01:20;;;;;;;3.30;3.10;;;6.40;99.90;;;;;;5072773;28;20455;-62
2020/12/12 09:03:51;;;;;;;4.90;3.90;;;6.40;99.90;;;;;;5072549;28;20425;-62
2020/12/12 09:06:17;;;;;;;3.83;3.60;;;6.40;99.90;;;;;;5071689;28;20187;-62
2020/12/12 09:08:43;;;;;;;4.10;3.80;;;6.40;99.90;;;;;;5072289;28;20861;-62
2020/12/12 09:11:13;;;;;;;3.63;3.30;;;6.40;99.90;;;;;;5072282;28;20706;-62
2020/12/12 09:13:39;;;;;;;6.63;3.67;;;6.50;99.90;;;;;;5072417;28;20180;-62
2020/12/12 09:16:08;;;;;;;4.43;3.20;;;6.50;99.90;;;;;;5072307;28;20459;-62
2020/12/12 09:18:47;;;;;;;3.90;3.50;;;6.50;99.90;;;;;;5072059;28;20171;-62
2020/12/12 09:21:14;;;;;;;4.20;3.90;;;6.50;99.90;;;;;;5072395;28;20406;-62
2020/12/12 09:23:40;;;;;;;3.90;3.60;;;6.60;99.90;;;;;;5071990;28;20922;-62
2020/12/12 09:26:07;;;;;;;5.30;4.47;;;6.60;99.90;;;;;;5071074;28;20447;-62
2020/12/12 09:28:33;;;;;;;5.80;4.10;;;6.70;99.90;;;;;;5071637;28;20896;-62
2020/12/12 09:30:59;;;;;;;3.77;3.47;;;6.70;99.90;;;;;;5072201;28;20480;-62
2020/12/12 09:33:25;;;;;;;3.77;3.40;;;6.70;99.90;;;;;;5071928;28;20499;-62
2020/12/12 09:35:50;;;;;;;6.13;4.90;;;6.70;99.90;;;;;;5070847;28;20171;-62
2020/12/12 09:38:16;;;;;;;3.63;3.20;;;6.70;99.90;;;;;;5071623;28;20160;-62
2020/12/12 09:40:43;;;;;;;3.30;2.80;;;6.70;99.90;;;;;;5072083;28;20532;-62
2020/12/12 09:43:09;;;;;;;3.53;3.23;;;6.70;99.90;;;;;;5071873;28;20270;-62
2020/12/12 09:45:35;;;;;;;3.80;3.00;;;6.70;99.90;;;;;;5071978;28;20413;-61
2020/12/12 09:48:00;;;;;;;7.77;3.60;;;6.70;99.90;;;;;;5071510;28;20398;-62
2020/12/12 09:50:33;;;;;;;4.57;3.40;;;6.80;99.90;;;;;;5071916;28;20680;-62
2020/12/12 09:53:00;;;;;;;3.30;3.10;;;6.80;99.90;;;;;;5071729;28;20245;-62
2020/12/12 09:55:26;;;;;;;4.03;3.60;;;6.80;99.90;;;;;;5071839;28;20480;-62
2020/12/12 09:57:52;;;;;;;3.80;3.10;;;6.80;99.90;;;;;;5072149;28;20505;-60
2020/12/12 10:00:17;;;;;;;3.27;2.90;;;6.90;99.90;;;;;;5071694;28;20405;-61
2020/12/12 10:02:43;;;;;;;3.27;2.90;;;7.00;99.90;;;;;;5071698;28;20172;-58
2020/12/12 10:05:09;;;;;;;3.23;3.03;;;7.10;99.90;;;;;;5071520;28;20636;-61
2020/12/12 10:07:34;;;;;;;3.27;3.07;;;7.10;99.90;;;;;;5071505;28;20254;-58
2020/12/12 10:10:00;;;;;;;3.10;2.87;;;7.20;99.90;;;;;;5071549;28;20200;-60
2020/12/12 10:12:25;;;;;;;3.17;2.87;;;7.40;99.90;;;;;;5071629;28;20541;-61
2020/12/12 10:14:51;;;;;;;2.43;2.33;;;7.50;99.90;;;;;;5071533;28;20171;-59
2020/12/12 10:17:17;;;;;;;2.53;2.40;;;7.60;99.90;;;;;;5071741;28;20164;-59
2020/12/12 10:19:42;;;;;;;4.13;2.50;;;7.60;99.90;;;;;;5075650;28;20669;-61
2020/12/12 10:22:08;;;;;;;3.20;3.00;;;7.70;99.90;;;;;;5075711;28;20914;-61
2020/12/12 10:24:33;;;;;;;3.20;2.90;;;7.70;99.90;;;;;;5075445;28;20334;-59
2020/12/12 10:26:59;;;;;;;3.10;2.90;;;7.70;99.90;;;;;;5075408;28;20200;-61
2020/12/12 10:29:25;;;;;;;2.93;2.73;;;7.70;99.90;;;;;;5075505;28;20209;-61
2020/12/12 10:31:50;;;;;;;3.40;3.20;;;7.80;99.90;;;;;;5075357;28;20452;-60
2020/12/12 10:34:16;;;;;;;4.40;3.00;;;7.70;99.90;;;;;;5075349;28;20221;-60
2020/12/12 10:36:41;;;;;;;3.17;2.67;;;7.70;99.90;;;;;;5074921;28;20662;-61
2020/12/12 10:39:09;;;;;;;3.43;3.13;;;7.70;99.90;;;;;;5075451;28;20182;-59
2020/12/12 10:41:34;;;;;;;5.57;4.20;;;7.70;99.90;;;;;;5075321;28;20177;-56
2020/12/12 10:44:00;;;;;;;3.03;2.83;;;7.70;99.90;;;;;;5075206;28;20430;-61
2020/12/12 10:46:26;;;;;;;5.37;3.07;;;7.70;99.90;;;;;;5075111;28;20684;-62
2020/12/12 10:48:51;;;;;;;3.27;2.97;;;7.70;99.90;;;;;;5074858;28;20197;-62
2020/12/12 10:51:17;;;;;;;3.37;3.13;;;7.70;99.90;;;;;;5075127;28;20554;-60
2020/12/12 10:53:43;;;;;;;4.03;3.80;;;7.70;99.90;;;;;;5074885;28;20188;-59
2020/12/12 10:56:09;;;;;;;3.20;3.00;;;7.70;99.90;;;;;;5075085;28;20623;-60
2020/12/12 10:58:34;;;;;;;3.43;3.20;;;7.70;99.90;;;;;;5074483;28;20452;-57
2020/12/12 11:01:01;;;;;;;3.20;3.00;;;7.70;99.90;;;;;;5074988;28;20168;-61
2020/12/12 11:03:26;;;;;;;3.80;3.50;;;7.70;99.90;;;;;;5073406;28;20193;-61
2020/12/12 11:05:52;;;;;;;3.83;3.17;;;7.70;99.90;;;;;;5074739;28;20456;-61
2020/12/12 11:08:17;;;;;;;2.93;2.73;;;7.60;99.90;;;;;;5074356;28;20171;-59
2020/12/12 11:10:43;;;;;;;4.03;3.00;;;7.70;99.90;;;;;;5074893;28;20167;-61
2020/12/12 11:13:08;;;;;;;3.80;3.50;;;7.60;99.90;;;;;;5074665;28;20192;-62
2020/12/12 11:15:36;;;;;;;3.60;2.70;;;7.60;99.90;;;;;;5074503;28;20292;-60
2020/12/12 11:18:02;;;;;;;3.83;3.20;;;7.70;99.90;;;;;;5074437;28;20164;-61
2020/12/12 11:20:27;;;;;;;3.10;2.90;;;7.70;99.90;;;;;;5074424;28;20423;-62
2020/12/12 11:22:55;;;;;;;2.83;2.63;;;7.70;99.90;;;;;;5074522;28;20201;-61
2020/12/12 11:25:21;;;;;;;3.63;3.33;;;7.70;99.90;;;;;;5074321;28;20174;-62
2020/12/12 11:27:46;;;;;;;7.77;3.90;;;7.70;99.90;;;;;;5074225;28;20500;-61
2020/12/12 11:30:12;;;;;;;2.67;2.57;;;7.80;99.90;;;;;;5073254;28;20570;-57
2020/12/12 11:32:39;;;;;;;6.13;3.90;;;7.70;99.90;;;;;;5074417;28;20164;-59
2020/12/12 11:35:14;;;;;;;4.57;3.63;;;7.60;99.90;;;;;;5072750;28;20410;-61
2020/12/12 11:38:26;;;;;;;4.90;3.33;;;7.60;99.90;;;;;;5074045;28;20960;-60
2020/12/12 11:40:43;;;;;;;4.10;3.80;;;7.60;99.90;;;;;;5076235;28;20419;-57
2020/12/12 11:48:00;;;;;;;4.87;4.57;;;7.80;99.90;;;;;;5073841;28;20171;-57
2020/12/12 11:50:29;;;;;;;4.87;4.47;;;7.80;99.90;;;;;;5073983;28;20196;-59
2020/12/12 11:52:56;;;;;;;3.37;3.07;;;7.80;99.90;;;;;;5073784;28;20189;-59
2020/12/12 11:55:23;;;;;;;3.60;3.30;;;7.80;99.90;;;;;;5073938;28;20401;-60
2020/12/12 11:57:49;;;;;;;4.13;3.73;;;7.80;99.90;;;;;;5073260;28;20411;-60
2020/12/12 12:00:14;;;;;;;5.10;4.67;;;7.80;99.90;;;;;;5073749;28;20431;-57
2020/12/12 12:02:43;;;;;;;5.83;5.33;;;7.80;99.90;;;;;;5073803;28;20176;-58
2020/12/12 12:05:09;;;;;;;3.60;3.40;;;7.80;99.90;;;;;;5073043;28;20181;-57
2020/12/12 12:07:42;;;;;;;3.70;3.40;;;7.80;99.90;;;;;;5071903;28;20401;-60
2020/12/12 12:12:45;;;;;;;3.53;3.33;;;7.80;99.90;;;;;;5074019;28;20403;-57
2020/12/12 12:15:10;;;;;;;4.30;4.10;;;7.80;99.90;;;;;;5073358;28;20402;-59
2020/12/12 12:17:36;;;;;;;4.03;3.73;;;7.80;99.90;;;;;;5073407;28;20173;-60
2020/12/12 12:20:05;;;;;;;16.30;5.10;;;7.90;99.90;;;;;;5073355;28;20186;-60
2020/12/12 12:22:30;;;;;;;6.83;4.30;;;7.90;99.90;;;;;;5073317;28;20415;-60
2020/12/12 12:24:57;;;;;;;4.93;3.70;;;7.90;99.90;;;;;;5073165;28;21096;-61
2020/12/12 12:27:23;;;;;;;4.87;4.57;;;7.90;99.90;;;;;;5073084;28;20178;-60
2020/12/12 12:29:49;;;;;;;4.00;3.80;;;8.00;99.90;;;;;;5073109;28;20484;-60
2020/12/12 12:32:14;;;;;;;6.33;4.60;;;8.00;99.90;;;;;;5073253;28;20441;-59
2020/12/12 12:34:40;;;;;;;3.47;3.27;;;8.00;99.90;;;;;;5073102;28;20196;-61
2020/12/12 12:37:06;;;;;;;4.50;4.00;;;8.00;99.90;;;;;;5072730;28;20234;-59
2020/12/12 12:39:31;;;;;;;3.53;3.23;;;8.10;99.90;;;;;;5073085;28;20203;-58
2020/12/12 12:41:57;;;;;;;3.40;3.17;;;8.00;99.90;;;;;;5072827;28;20174;-60
2020/12/12 12:44:22;;;;;;;3.80;3.50;;;8.10;99.90;;;;;;5072833;28;20199;-60
2020/12/12 12:46:49;;;;;;;5.27;4.30;;;8.10;99.90;;;;;;5072595;28;20174;-60
2020/12/12 12:49:16;;;;;;;3.70;3.40;;;8.10;99.90;;;;;;5072856;28;20202;-60
2020/12/12 12:51:42;;;;;;;4.50;3.90;;;8.20;99.90;;;;;;5072712;28;20946;-60
2020/12/12 12:54:07;;;;;;;4.40;3.67;;;8.20;99.90;;;;;;5072624;28;20524;-60
2020/12/12 12:56:33;;;;;;;4.17;3.97;;;8.20;99.90;;;;;;5072544;28;20233;-60
2020/12/12 12:58:58;;;;;;;3.83;3.63;;;8.30;99.90;;;;;;5072372;28;20183;-60
2020/12/12 13:01:24;;;;;;;4.60;3.90;;;8.30;99.90;;;;;;5072716;28;20167;-59
2020/12/12 13:03:51;;;;;;;4.00;3.70;;;8.30;99.90;;;;;;5072818;28;20183;-57
2020/12/12 13:06:21;;;;;;;3.50;3.00;;;8.30;99.90;;;;;;5072655;28;20408;-56